sensor_id;sensor_type;location;lat;lon;timestamp;pressure;altitude;pressure_sealevel;temperature;humidity
75051;BME280;63628;47.656;11.310;2022-12-18T00:00:43;95749.78;;;-4.44;90.63
75051;BME280;63628;47.656;11.310;2022-12-18T00:03:10;95745.19;;;-2.37;91.43
75051;BME280;63628;47.656;11.310;2022-12-18T00:05:37;95746.47;;;-1.92;90.49
75051;BME280;63628;47.656;11.310;2022-12-18T00:08:04;95747.88;;;-3.86;84.55
75051;BME280;63628;47.656;11.310;2022-12-18T00:10:35;95741.38;;;-3.05;90.13
75051;BME280;63628;47.656;11.310;2022-12-18T00:13:01;95740.91;;;-1.77;91.53
75051;BME280;63628;47.656;11.310;2022-12-18T00:15:33;95743.75;;;-2.93;87.63
75051;BME280;63628;47.656;11.310;2022-12-18T00:18:02;95738.16;;;-1.76;89.73
75051;BME280;63628;47.656;11.310;2022-12-18T00:20:29;95732.09;;;-1.17;90.26
75051;BME280;63628;47.656;11.310;2022-12-18T00:22:55;95730.03;;;-0.94;90.35
75051;BME280;63628;47.656;11.310;2022-12-18T00:25:22;95743.56;;;-0.90;89.64
75051;BME280;63628;47.656;11.310;2022-12-18T00:27:49;95738.50;;;-0.92;89.66
75051;BME280;63628;47.656;11.310;2022-12-18T00:30:16;95736.72;;;-0.82;89.63
75051;BME280;63628;47.656;11.310;2022-12-18T00:32:42;95744.22;;;-0.69;89.67
75051;BME280;63628;47.656;11.310;2022-12-18T00:35:10;95749.69;;;-0.62;89.28
75051;BME280;63628;47.656;11.310;2022-12-18T00:37:37;95759.28;;;-0.63;89.13
75051;BME280;63628;47.656;11.310;2022-12-18T00:40:05;95749.28;;;-0.68;89.86
75051;BME280;63628;47.656;11.310;2022-12-18T00:42:31;95758.59;;;-0.65;89.41
75051;BME280;63628;47.656;11.310;2022-12-18T00:45:17;95756.69;;;-0.63;89.38
75051;BME280;63628;47.656;11.310;2022-12-18T00:47:43;95759.13;;;-0.71;87.97
75051;BME280;63628;47.656;11.310;2022-12-18T00:50:11;95766.69;;;-2.67;79.36
75051;BME280;63628;47.656;11.310;2022-12-18T00:52:38;95767.63;;;-1.27;89.54
75051;BME280;63628;47.656;11.310;2022-12-18T00:55:05;95769.81;;;-0.65;89.84
75051;BME280;63628;47.656;11.310;2022-12-18T00:57:32;95769.91;;;-0.66;90.03
75051;BME280;63628;47.656;11.310;2022-12-18T00:59:58;95765.28;;;-0.62;89.55
75051;BME280;63628;47.656;11.310;2022-12-18T01:02:25;95761.28;;;-0.47;89.31
75051;BME280;63628;47.656;11.310;2022-12-18T01:04:52;95767.16;;;-0.45;89.57
75051;BME280;63628;47.656;11.310;2022-12-18T01:07:20;95776.56;;;-0.35;89.16
75051;BME280;63628;47.656;11.310;2022-12-18T01:09:46;95774.09;;;-0.26;88.96
75051;BME280;63628;47.656;11.310;2022-12-18T01:12:13;95779.16;;;-0.25;89.21
75051;BME280;63628;47.656;11.310;2022-12-18T01:14:39;95793.13;;;-0.26;89.37
75051;BME280;63628;47.656;11.310;2022-12-18T01:17:06;95800.50;;;-0.21;89.54
75051;BME280;63628;47.656;11.310;2022-12-18T01:19:32;95798.16;;;-0.15;89.14
75051;BME280;63628;47.656;11.310;2022-12-18T01:21:59;95801.03;;;-0.18;88.76
75051;BME280;63628;47.656;11.310;2022-12-18T01:24:27;95815.81;;;-0.18;89.04
75051;BME280;63628;47.656;11.310;2022-12-18T01:26:54;95805.16;;;-0.25;88.70
75051;BME280;63628;47.656;11.310;2022-12-18T01:29:20;95813.84;;;-0.92;88.58
75051;BME280;63628;47.656;11.310;2022-12-18T01:31:47;95826.22;;;-2.88;78.51
75051;BME280;63628;47.656;11.310;2022-12-18T01:34:13;95829.44;;;-5.21;84.20
75051;BME280;63628;47.656;11.310;2022-12-18T01:36:40;95832.75;;;-5.79;86.96
75051;BME280;63628;47.656;11.310;2022-12-18T01:39:10;95826.47;;;-3.77;90.65
75051;BME280;63628;47.656;11.310;2022-12-18T01:41:38;95840.22;;;-5.03;86.14
75051;BME280;63628;47.656;11.310;2022-12-18T01:47:37;95820.66;;;-0.91;91.83
75051;BME280;63628;47.656;11.310;2022-12-18T01:50:09;95824.78;;;-2.81;83.01
75051;BME280;63628;47.656;11.310;2022-12-18T01:52:37;95832.34;;;-1.85;90.15
75051;BME280;63628;47.656;11.310;2022-12-18T01:55:06;95837.53;;;-3.21;88.05
75051;BME280;63628;47.656;11.310;2022-12-18T01:57:34;95834.88;;;-1.05;91.25
75051;BME280;63628;47.656;11.310;2022-12-18T02:00:05;95828.63;;;-0.63;91.04
75051;BME280;63628;47.656;11.310;2022-12-18T02:02:32;95822.59;;;-0.54;90.45
75051;BME280;63628;47.656;11.310;2022-12-18T02:04:59;95822.72;;;-0.66;90.23
75051;BME280;63628;47.656;11.310;2022-12-18T02:07:34;95816.81;;;-1.16;88.58
75051;BME280;63628;47.656;11.310;2022-12-18T02:10:06;95822.78;;;-1.35;85.46
75051;BME280;63628;47.656;11.310;2022-12-18T02:12:42;95822.50;;;-4.61;82.08
75051;BME280;63628;47.656;11.310;2022-12-18T02:15:15;95825.41;;;-4.20;87.19
75051;BME280;63628;47.656;11.310;2022-12-18T02:17:47;95821.56;;;-4.60;85.04
75051;BME280;63628;47.656;11.310;2022-12-18T02:20:18;95823.44;;;-1.92;90.74
75051;BME280;63628;47.656;11.310;2022-12-18T02:22:59;95819.91;;;-1.41;90.04
75051;BME280;63628;47.656;11.310;2022-12-18T02:25:40;95830.44;;;-3.62;85.95
75051;BME280;63628;47.656;11.310;2022-12-18T02:28:15;95834.41;;;-2.72;87.28
75051;BME280;63628;47.656;11.310;2022-12-18T02:30:46;95845.31;;;-4.55;81.76
75051;BME280;63628;47.656;11.310;2022-12-18T02:33:15;95823.56;;;-1.53;91.38
75051;BME280;63628;47.656;11.310;2022-12-18T02:35:43;95829.41;;;-0.92;91.41
75051;BME280;63628;47.656;11.310;2022-12-18T02:38:12;95833.28;;;-3.76;87.58
75051;BME280;63628;47.656;11.310;2022-12-18T02:40:40;95827.81;;;-1.52;91.41
75051;BME280;63628;47.656;11.310;2022-12-18T02:43:09;95822.31;;;-0.80;91.43
75051;BME280;63628;47.656;11.310;2022-12-18T02:45:46;95827.59;;;-4.84;82.64
75051;BME280;63628;47.656;11.310;2022-12-18T02:48:14;95828.53;;;-4.50;87.92
75051;BME280;63628;47.656;11.310;2022-12-18T02:50:45;95834.25;;;-1.87;91.60
75051;BME280;63628;47.656;11.310;2022-12-18T02:53:22;95828.72;;;-1.04;92.47
75051;BME280;63628;47.656;11.310;2022-12-18T02:55:57;95829.69;;;-1.05;91.53
75051;BME280;63628;47.656;11.310;2022-12-18T02:58:30;95831.91;;;-3.37;84.71
75051;BME280;63628;47.656;11.310;2022-12-18T03:01:06;95846.16;;;-5.14;84.07
75051;BME280;63628;47.656;11.310;2022-12-18T03:03:39;95829.75;;;-2.57;90.39
75051;BME280;63628;47.656;11.310;2022-12-18T03:06:10;95831.13;;;-1.31;92.03
75051;BME280;63628;47.656;11.310;2022-12-18T03:08:43;95834.19;;;-0.97;92.20
75051;BME280;63628;47.656;11.310;2022-12-18T03:11:12;95839.25;;;-0.86;91.22
75051;BME280;63628;47.656;11.310;2022-12-18T03:13:43;95829.16;;;-0.89;91.17
75051;BME280;63628;47.656;11.310;2022-12-18T03:16:16;95821.47;;;-0.71;90.84
75051;BME280;63628;47.656;11.310;2022-12-18T03:18:47;95820.41;;;-0.59;90.80
75051;BME280;63628;47.656;11.310;2022-12-18T03:21:19;95819.44;;;-0.58;90.41
75051;BME280;63628;47.656;11.310;2022-12-18T03:23:49;95818.22;;;-0.54;90.15
75051;BME280;63628;47.656;11.310;2022-12-18T03:26:19;95814.09;;;-0.76;89.29
75051;BME280;63628;47.656;11.310;2022-12-18T03:28:51;95811.78;;;-0.50;90.04
75051;BME280;63628;47.656;11.310;2022-12-18T03:31:21;95806.72;;;-0.80;88.94
75051;BME280;63628;47.656;11.310;2022-12-18T03:33:52;95809.72;;;-1.23;88.94
75051;BME280;63628;47.656;11.310;2022-12-18T03:36:19;95816.94;;;-2.07;83.20
75051;BME280;63628;47.656;11.310;2022-12-18T03:38:45;95828.22;;;-5.88;84.34
75051;BME280;63628;47.656;11.310;2022-12-18T03:41:17;95826.88;;;-6.18;86.46
75051;BME280;63628;47.656;11.310;2022-12-18T03:43:49;95812.81;;;-2.10;92.32
75051;BME280;63628;47.656;11.310;2022-12-18T03:46:26;95806.69;;;-1.78;92.01
75051;BME280;63628;47.656;11.310;2022-12-18T03:48:59;95817.84;;;-3.56;87.04
75051;BME280;63628;47.656;11.310;2022-12-18T03:51:32;95803.03;;;-1.07;91.85
75051;BME280;63628;47.656;11.310;2022-12-18T03:54:02;95799.75;;;-0.80;90.85
75051;BME280;63628;47.656;11.310;2022-12-18T03:56:33;95796.88;;;-0.86;90.70
75051;BME280;63628;47.656;11.310;2022-12-18T03:59:02;95803.84;;;-0.77;90.69
75051;BME280;63628;47.656;11.310;2022-12-18T04:01:34;95803.59;;;-0.65;90.38
75051;BME280;63628;47.656;11.310;2022-12-18T04:04:03;95821.50;;;-2.20;81.02
75051;BME280;63628;47.656;11.310;2022-12-18T04:06:31;95819.03;;;-0.92;89.91
75051;BME280;63628;47.656;11.310;2022-12-18T04:08:58;95824.34;;;-1.03;88.10
75051;BME280;63628;47.656;11.310;2022-12-18T04:11:25;95832.16;;;-0.84;89.26
75051;BME280;63628;47.656;11.310;2022-12-18T04:13:56;95823.56;;;-0.65;90.10
75051;BME280;63628;47.656;11.310;2022-12-18T04:16:23;95821.34;;;-0.70;89.78
75051;BME280;63628;47.656;11.310;2022-12-18T04:18:51;95833.41;;;-0.59;90.00
75051;BME280;63628;47.656;11.310;2022-12-18T04:21:18;95835.84;;;-0.48;89.55
75051;BME280;63628;47.656;11.310;2022-12-18T04:23:45;95832.16;;;-0.45;89.76
75051;BME280;63628;47.656;11.310;2022-12-18T04:26:12;95835.56;;;-0.45;89.76
75051;BME280;63628;47.656;11.310;2022-12-18T04:28:38;95832.84;;;-0.43;89.12
75051;BME280;63628;47.656;11.310;2022-12-18T04:31:05;95838.84;;;-0.43;89.50
75051;BME280;63628;47.656;11.310;2022-12-18T04:33:32;95838.28;;;-0.37;89.15
75051;BME280;63628;47.656;11.310;2022-12-18T04:36:00;95838.28;;;-0.37;88.65
75051;BME280;63628;47.656;11.310;2022-12-18T04:38:26;95831.84;;;-0.33;88.93
75051;BME280;63628;47.656;11.310;2022-12-18T04:40:53;95837.06;;;-0.33;88.88
75051;BME280;63628;47.656;11.310;2022-12-18T04:43:19;95828.56;;;-0.35;89.21
75051;BME280;63628;47.656;11.310;2022-12-18T04:45:46;95827.06;;;-0.37;88.80
75051;BME280;63628;47.656;11.310;2022-12-18T04:48:13;95828.03;;;-0.38;89.17
75051;BME280;63628;47.656;11.310;2022-12-18T04:50:39;95835.03;;;-0.39;88.86
75051;BME280;63628;47.656;11.310;2022-12-18T04:53:07;95839.69;;;-0.42;89.02
75051;BME280;63628;47.656;11.310;2022-12-18T04:55:35;95843.94;;;-0.51;88.84
75051;BME280;63628;47.656;11.310;2022-12-18T04:58:01;95842.41;;;-0.44;88.58
75051;BME280;63628;47.656;11.310;2022-12-18T05:00:28;95844.16;;;-2.22;86.13
75051;BME280;63628;47.656;11.310;2022-12-18T05:02:55;95854.84;;;-0.67;90.02
75051;BME280;63628;47.656;11.310;2022-12-18T05:05:22;95865.97;;;-0.55;89.20
75051;BME280;63628;47.656;11.310;2022-12-18T05:07:48;95862.66;;;-0.47;89.14
75051;BME280;63628;47.656;11.310;2022-12-18T05:10:16;95881.13;;;-0.41;88.83
75051;BME280;63628;47.656;11.310;2022-12-18T05:12:44;95869.22;;;-0.43;88.82
75051;BME280;63628;47.656;11.310;2022-12-18T05:15:28;95864.84;;;-0.43;88.71
75051;BME280;63628;47.656;11.310;2022-12-18T05:17:55;95879.06;;;-0.37;89.08
75051;BME280;63628;47.656;11.310;2022-12-18T05:20:22;95877.16;;;-0.35;88.79
75051;BME280;63628;47.656;11.310;2022-12-18T05:22:49;95881.53;;;-0.36;88.54
75051;BME280;63628;47.656;11.310;2022-12-18T05:25:17;95871.41;;;-0.39;88.28
75051;BME280;63628;47.656;11.310;2022-12-18T05:27:44;95885.38;;;-0.40;88.41
75051;BME280;63628;47.656;11.310;2022-12-18T05:30:15;95880.03;;;-0.38;88.38
75051;BME280;63628;47.656;11.310;2022-12-18T05:32:42;95897.28;;;-0.37;88.87
75051;BME280;63628;47.656;11.310;2022-12-18T05:35:10;95898.09;;;-0.37;88.60
75051;BME280;63628;47.656;11.310;2022-12-18T05:37:37;95904.25;;;-0.38;88.39
75051;BME280;63628;47.656;11.310;2022-12-18T05:40:10;95903.97;;;-0.35;88.31
75051;BME280;63628;47.656;11.310;2022-12-18T05:42:38;95914.94;;;-0.31;88.37
75051;BME280;63628;47.656;11.310;2022-12-18T05:45:05;95915.63;;;-0.39;88.38
75051;BME280;63628;47.656;11.310;2022-12-18T05:47:32;95918.22;;;-0.39;88.05
75051;BME280;63628;47.656;11.310;2022-12-18T05:49:59;95913.97;;;-0.40;87.97
75051;BME280;63628;47.656;11.310;2022-12-18T05:52:25;95910.41;;;-0.39;87.96
75051;BME280;63628;47.656;11.310;2022-12-18T05:54:52;95919.03;;;-0.38;88.45
75051;BME280;63628;47.656;11.310;2022-12-18T05:57:18;95915.63;;;-0.39;87.80
75051;BME280;63628;47.656;11.310;2022-12-18T05:59:46;95917.53;;;-0.41;88.35
75051;BME280;63628;47.656;11.310;2022-12-18T06:02:13;95922.03;;;-0.33;87.89
75051;BME280;63628;47.656;11.310;2022-12-18T06:04:40;95926.69;;;-0.37;87.60
75051;BME280;63628;47.656;11.310;2022-12-18T06:07:06;95925.06;;;-0.38;87.85
75051;BME280;63628;47.656;11.310;2022-12-18T06:09:33;95921.78;;;-0.40;87.87
75051;BME280;63628;47.656;11.310;2022-12-18T06:12:00;95927.78;;;-0.39;87.94
75051;BME280;63628;47.656;11.310;2022-12-18T06:14:26;95926.97;;;-0.40;87.86
75051;BME280;63628;47.656;11.310;2022-12-18T06:16:54;95915.56;;;-0.68;85.88
75051;BME280;63628;47.656;11.310;2022-12-18T06:19:21;95922.31;;;-0.46;87.45
75051;BME280;63628;47.656;11.310;2022-12-18T06:21:48;95918.22;;;-0.39;87.61
75051;BME280;63628;47.656;11.310;2022-12-18T06:24:15;95918.63;;;-0.43;87.59
75051;BME280;63628;47.656;11.310;2022-12-18T06:26:42;95919.59;;;-0.44;87.87
75051;BME280;63628;47.656;11.310;2022-12-18T06:29:09;95914.38;;;-0.44;88.10
75051;BME280;63628;47.656;11.310;2022-12-18T06:31:35;95914.53;;;-0.46;87.90
75051;BME280;63628;47.656;11.310;2022-12-18T06:34:04;95923.69;;;-0.42;87.39
75051;BME280;63628;47.656;11.310;2022-12-18T06:36:31;95914.38;;;-0.44;87.98
75051;BME280;63628;47.656;11.310;2022-12-18T06:38:58;95908.50;;;-0.46;87.89
75051;BME280;63628;47.656;11.310;2022-12-18T06:41:25;95914.63;;;-0.76;85.95
75051;BME280;63628;47.656;11.310;2022-12-18T06:43:51;95916.56;;;-0.49;87.58
75051;BME280;63628;47.656;11.310;2022-12-18T06:46:25;95916.03;;;-1.22;86.74
75051;BME280;63628;47.656;11.310;2022-12-18T06:48:51;95913.97;;;-0.59;88.20
75051;BME280;63628;47.656;11.310;2022-12-18T06:51:21;95927.38;;;-0.54;87.99
75051;BME280;63628;47.656;11.310;2022-12-18T06:53:49;95926.97;;;-0.49;87.81
75051;BME280;63628;47.656;11.310;2022-12-18T06:56:16;95929.84;;;-0.52;87.79
75051;BME280;63628;47.656;11.310;2022-12-18T06:58:42;95929.72;;;-0.51;87.67
75051;BME280;63628;47.656;11.310;2022-12-18T07:01:10;95932.44;;;-0.52;87.50
75051;BME280;63628;47.656;11.310;2022-12-18T07:03:38;95938.47;;;-0.52;87.59
75051;BME280;63628;47.656;11.310;2022-12-18T07:06:06;95949.69;;;-0.51;87.78
75051;BME280;63628;47.656;11.310;2022-12-18T07:08:34;95956.78;;;-0.53;87.75
75051;BME280;63628;47.656;11.310;2022-12-18T07:11:03;95951.59;;;-0.53;87.32
75051;BME280;63628;47.656;11.310;2022-12-18T07:13:30;95963.78;;;-0.54;87.34
75051;BME280;63628;47.656;11.310;2022-12-18T07:16:03;95963.78;;;-0.54;87.75
75051;BME280;63628;47.656;11.310;2022-12-18T07:18:34;95975.13;;;-0.55;87.29
75051;BME280;63628;47.656;11.310;2022-12-18T07:21:03;95981.09;;;-2.07;86.48
75051;BME280;63628;47.656;11.310;2022-12-18T07:23:30;95985.03;;;-0.79;88.64
75051;BME280;63628;47.656;11.310;2022-12-18T07:26:02;95991.53;;;-0.64;88.35
75051;BME280;63628;47.656;11.310;2022-12-18T07:28:29;95984.28;;;-0.60;87.77
75051;BME280;63628;47.656;11.310;2022-12-18T07:30:55;95990.03;;;-0.57;87.97
75051;BME280;63628;47.656;11.310;2022-12-18T07:33:22;95988.38;;;-0.58;87.39
75051;BME280;63628;47.656;11.310;2022-12-18T07:35:48;95984.84;;;-0.57;87.44
75051;BME280;63628;47.656;11.310;2022-12-18T07:38:15;95989.91;;;-0.55;87.79
75051;BME280;63628;47.656;11.310;2022-12-18T07:40:41;95985.38;;;-0.53;87.75
75051;BME280;63628;47.656;11.310;2022-12-18T07:43:09;95977.59;;;-0.53;87.85
75051;BME280;63628;47.656;11.310;2022-12-18T07:45:36;95987.16;;;-0.54;87.77
75051;BME280;63628;47.656;11.310;2022-12-18T07:48:03;95975.38;;;-0.58;87.79
75051;BME280;63628;47.656;11.310;2022-12-18T07:50:29;95986.75;;;-0.59;87.23
75051;BME280;63628;47.656;11.310;2022-12-18T07:52:56;95984.97;;;-0.58;87.30
75051;BME280;63628;47.656;11.310;2022-12-18T07:55:22;95986.44;;;-0.66;86.61
75051;BME280;63628;47.656;11.310;2022-12-18T07:57:49;96009.03;;;-4.94;73.03
75051;BME280;63628;47.656;11.310;2022-12-18T08:00:21;96011.78;;;-5.34;82.40
75051;BME280;63628;47.656;11.310;2022-12-18T08:02:47;96005.00;;;-2.35;89.54
75051;BME280;63628;47.656;11.310;2022-12-18T08:05:14;96013.81;;;-5.14;76.81
75051;BME280;63628;47.656;11.310;2022-12-18T08:07:41;96018.31;;;-7.12;82.17
75051;BME280;63628;47.656;11.310;2022-12-18T08:10:08;96008.44;;;-3.23;91.06
75051;BME280;63628;47.656;11.310;2022-12-18T08:12:35;95997.81;;;-1.79;92.25
75051;BME280;63628;47.656;11.310;2022-12-18T08:15:01;95995.75;;;-1.34;91.03
75051;BME280;63628;47.656;11.310;2022-12-18T08:17:29;96009.94;;;-1.17;89.90
75051;BME280;63628;47.656;11.310;2022-12-18T08:19:56;96003.69;;;-1.05;89.03
75051;BME280;63628;47.656;11.310;2022-12-18T08:22:22;95998.47;;;-1.14;88.07
75051;BME280;63628;47.656;11.310;2022-12-18T08:24:49;96004.81;;;-0.98;88.46
75051;BME280;63628;47.656;11.310;2022-12-18T08:27:16;96023.34;;;-3.95;75.01
75051;BME280;63628;47.656;11.310;2022-12-18T08:29:58;96011.31;;;-1.34;89.16
75051;BME280;63628;47.656;11.310;2022-12-18T08:32:25;96018.31;;;-1.04;88.43
75051;BME280;63628;47.656;11.310;2022-12-18T08:34:53;96025.59;;;-0.98;88.51
75051;BME280;63628;47.656;11.310;2022-12-18T08:37:19;96020.28;;;-2.75;83.02
75051;BME280;63628;47.656;11.310;2022-12-18T08:39:46;96019.75;;;-1.20;88.86
75051;BME280;63628;47.656;11.310;2022-12-18T08:42:13;96016.19;;;-1.19;87.31
75051;BME280;63628;47.656;11.310;2022-12-18T08:44:58;96019.34;;;-1.67;88.12
75051;BME280;63628;47.656;11.310;2022-12-18T08:47:25;96014.03;;;-1.14;88.81
75051;BME280;63628;47.656;11.310;2022-12-18T08:49:53;96007.53;;;-0.99;88.11
75051;BME280;63628;47.656;11.310;2022-12-18T08:52:20;96013.94;;;-1.03;87.61
75051;BME280;63628;47.656;11.310;2022-12-18T08:54:46;96006.56;;;-0.98;88.07
75051;BME280;63628;47.656;11.310;2022-12-18T08:57:13;96011.38;;;-0.93;87.81
75051;BME280;63628;47.656;11.310;2022-12-18T08:59:40;96010.56;;;-0.94;88.03
75051;BME280;63628;47.656;11.310;2022-12-18T09:02:08;96018.34;;;-0.94;88.00
75051;BME280;63628;47.656;11.310;2022-12-18T09:04:34;96030.38;;;-0.93;87.70
75051;BME280;63628;47.656;11.310;2022-12-18T09:07:02;96027.66;;;-0.91;87.65
75051;BME280;63628;47.656;11.310;2022-12-18T09:09:29;96024.56;;;-1.37;82.84
75051;BME280;63628;47.656;11.310;2022-12-18T09:11:56;96024.53;;;-2.74;75.01
75051;BME280;63628;47.656;11.310;2022-12-18T09:14:22;96031.59;;;-6.64;78.82
75051;BME280;63628;47.656;11.310;2022-12-18T09:16:49;96037.22;;;-6.18;84.12
75051;BME280;63628;47.656;11.310;2022-12-18T09:19:15;96030.28;;;-3.38;89.25
75051;BME280;63628;47.656;11.310;2022-12-18T09:21:42;96033.91;;;-4.33;85.30
75051;BME280;63628;47.656;11.310;2022-12-18T09:24:15;96023.75;;;-1.79;90.19
75051;BME280;63628;47.656;11.310;2022-12-18T09:26:43;96021.53;;;-1.42;89.88
75051;BME280;63628;47.656;11.310;2022-12-18T09:29:12;96016.38;;;-1.32;88.68
75051;BME280;63628;47.656;11.310;2022-12-18T09:31:40;96017.59;;;-2.31;82.05
75051;BME280;63628;47.656;11.310;2022-12-18T09:34:07;96014.88;;;-1.35;88.75
75051;BME280;63628;47.656;11.310;2022-12-18T09:36:33;96012.47;;;-1.26;88.40
75051;BME280;63628;47.656;11.310;2022-12-18T09:39:00;96022.66;;;-1.14;88.35
75051;BME280;63628;47.656;11.310;2022-12-18T09:41:43;96026.06;;;-1.13;88.23
75051;BME280;63628;47.656;11.310;2022-12-18T09:44:16;96026.88;;;-1.13;88.17
75051;BME280;63628;47.656;11.310;2022-12-18T09:46:46;96028.53;;;-1.12;88.06
75051;BME280;63628;47.656;11.310;2022-12-18T09:49:17;96032.66;;;-1.09;88.05
75051;BME280;63628;47.656;11.310;2022-12-18T09:51:49;96028.31;;;-1.30;85.87
75051;BME280;63628;47.656;11.310;2022-12-18T09:54:21;96030.25;;;-5.40;77.98
75051;BME280;63628;47.656;11.310;2022-12-18T09:56:50;96021.91;;;-2.63;89.75
75051;BME280;63628;47.656;11.310;2022-12-18T09:59:21;96020.91;;;-1.76;90.57
75051;BME280;63628;47.656;11.310;2022-12-18T10:01:50;96011.59;;;-1.37;89.23
75051;BME280;63628;47.656;11.310;2022-12-18T10:04:16;96013.56;;;-1.29;88.31
75051;BME280;63628;47.656;11.310;2022-12-18T10:06:47;96007.03;;;-1.23;88.73
75051;BME280;63628;47.656;11.310;2022-12-18T10:09:34;96015.69;;;-1.13;88.01
75051;BME280;63628;47.656;11.310;2022-12-18T10:12:09;96008.59;;;-1.11;87.94
75051;BME280;63628;47.656;11.310;2022-12-18T10:14:45;96018.84;;;-1.10;87.49
75051;BME280;63628;47.656;11.310;2022-12-18T10:17:22;96014.13;;;-1.25;87.87
75051;BME280;63628;47.656;11.310;2022-12-18T10:19:53;96016.19;;;-1.19;87.66
75051;BME280;63628;47.656;11.310;2022-12-18T10:22:29;96020.88;;;-1.13;87.84
75051;BME280;63628;47.656;11.310;2022-12-18T10:25:02;96011.88;;;-1.09;87.69
75051;BME280;63628;47.656;11.310;2022-12-18T10:27:33;96011.06;;;-1.10;87.77
75051;BME280;63628;47.656;11.310;2022-12-18T10:30:03;96010.09;;;-1.09;87.93
75051;BME280;63628;47.656;11.310;2022-12-18T10:32:32;96006.41;;;-1.06;87.80
75051;BME280;63628;47.656;11.310;2022-12-18T10:34:59;96001.91;;;-1.04;87.90
75051;BME280;63628;47.656;11.310;2022-12-18T10:37:28;96001.78;;;-1.03;87.92
75051;BME280;63628;47.656;11.310;2022-12-18T10:40:08;95995.06;;;-1.05;87.63
75051;BME280;63628;47.656;11.310;2022-12-18T10:42:37;95994.81;;;-2.16;82.64
75051;BME280;63628;47.656;11.310;2022-12-18T10:45:09;95982.72;;;-2.59;83.26
75051;BME280;63628;47.656;11.310;2022-12-18T10:47:36;95985.31;;;-1.22;88.41
75051;BME280;63628;47.656;11.310;2022-12-18T10:50:19;95980.84;;;-1.11;87.64
75051;BME280;63628;47.656;11.310;2022-12-18T10:52:54;95984.81;;;-1.07;87.66
75051;BME280;63628;47.656;11.310;2022-12-18T10:55:21;95979.63;;;-1.07;87.98
75051;BME280;63628;47.656;11.310;2022-12-18T10:57:50;95979.34;;;-1.04;87.61
75051;BME280;63628;47.656;11.310;2022-12-18T11:00:23;95979.50;;;-1.05;87.68
75051;BME280;63628;47.656;11.310;2022-12-18T11:02:51;95985.25;;;-1.02;87.46
75051;BME280;63628;47.656;11.310;2022-12-18T11:05:28;95978.13;;;-1.61;85.48
75051;BME280;63628;47.656;11.310;2022-12-18T11:07:56;95977.72;;;-1.35;87.71
75051;BME280;63628;47.656;11.310;2022-12-18T11:10:27;95975.78;;;-1.12;88.04
75051;BME280;63628;47.656;11.310;2022-12-18T11:13:09;95982.22;;;-1.07;87.95
75051;BME280;63628;47.656;11.310;2022-12-18T11:15:36;95982.91;;;-1.05;87.54
75051;BME280;63628;47.656;11.310;2022-12-18T11:18:03;95987.16;;;-1.04;88.01
75051;BME280;63628;47.656;11.310;2022-12-18T11:20:33;95991.25;;;-1.01;87.82
75051;BME280;63628;47.656;11.310;2022-12-18T11:23:03;95990.00;;;-1.37;84.45
75051;BME280;63628;47.656;11.310;2022-12-18T11:25:31;95987.16;;;-1.04;87.97
75051;BME280;63628;47.656;11.310;2022-12-18T11:28:03;95987.03;;;-1.02;87.84
75051;BME280;63628;47.656;11.310;2022-12-18T11:30:32;95992.22;;;-1.02;87.48
75051;BME280;63628;47.656;11.310;2022-12-18T11:33:04;95984.84;;;-0.97;87.68
75051;BME280;63628;47.656;11.310;2022-12-18T11:35:42;95967.50;;;-0.97;87.74
75051;BME280;63628;47.656;11.310;2022-12-18T11:38:20;95967.34;;;-0.95;87.87
75051;BME280;63628;47.656;11.310;2022-12-18T11:40:51;95962.97;;;-0.94;88.09
75051;BME280;63628;47.656;11.310;2022-12-18T11:43:27;95961.06;;;-0.92;87.83
75051;BME280;63628;47.656;11.310;2022-12-18T11:45:59;95964.88;;;-0.97;86.99
75051;BME280;63628;47.656;11.310;2022-12-18T11:48:30;95967.50;;;-0.97;87.84
75051;BME280;63628;47.656;11.310;2022-12-18T11:51:03;95966.50;;;-1.66;82.48
75051;BME280;63628;47.656;11.310;2022-12-18T11:53:31;95975.81;;;-1.33;87.46
75051;BME280;63628;47.656;11.310;2022-12-18T11:56:11;95966.78;;;-3.42;78.83
75051;BME280;63628;47.656;11.310;2022-12-18T11:58:47;95974.44;;;-4.09;80.90
75051;BME280;63628;47.656;11.310;2022-12-18T12:01:26;95957.75;;;-2.28;87.49
75051;BME280;63628;47.656;11.310;2022-12-18T12:07:20;95951.63;;;-2.06;87.80
75051;BME280;63628;47.656;11.310;2022-12-18T12:09:57;95958.81;;;-1.47;88.45
75051;BME280;63628;47.656;11.310;2022-12-18T12:12:35;95966.91;;;-2.24;86.05
75051;BME280;63628;47.656;11.310;2022-12-18T12:15:28;95957.16;;;-1.48;87.98
75051;BME280;63628;47.656;11.310;2022-12-18T12:18:03;95955.81;;;-1.42;86.90
75051;BME280;63628;47.656;11.310;2022-12-18T12:20:45;95958.38;;;-1.52;85.76
75051;BME280;63628;47.656;11.310;2022-12-18T12:23:22;95960.53;;;-4.30;76.41
75051;BME280;63628;47.656;11.310;2022-12-18T12:25:57;95944.38;;;-2.44;87.71
75051;BME280;63628;47.656;11.310;2022-12-18T12:28:38;95943.00;;;-1.95;86.81
75051;BME280;63628;47.656;11.310;2022-12-18T12:31:21;95933.44;;;-1.34;87.89
75051;BME280;63628;47.656;11.310;2022-12-18T12:33:58;95935.03;;;-1.21;87.43
75051;BME280;63628;47.656;11.310;2022-12-18T12:36:33;95922.03;;;-1.21;87.28
75051;BME280;63628;47.656;11.310;2022-12-18T12:39:06;95923.81;;;-1.83;84.14
75051;BME280;63628;47.656;11.310;2022-12-18T12:41:36;95922.31;;;-1.24;87.39
75051;BME280;63628;47.656;11.310;2022-12-18T12:44:26;95920.25;;;-1.21;87.75
75051;BME280;63628;47.656;11.310;2022-12-18T12:46:59;95919.28;;;-1.30;86.83
75051;BME280;63628;47.656;11.310;2022-12-18T12:49:29;95920.44;;;-1.43;86.31
75051;BME280;63628;47.656;11.310;2022-12-18T12:52:07;95915.06;;;-1.21;87.24
75051;BME280;63628;47.656;11.310;2022-12-18T12:54:37;95918.63;;;-1.22;87.12
75051;BME280;63628;47.656;11.310;2022-12-18T12:57:08;95923.66;;;-2.02;80.81
75051;BME280;63628;47.656;11.310;2022-12-18T12:59:41;95940.16;;;-4.46;77.23
75051;BME280;63628;47.656;11.310;2022-12-18T13:02:20;95939.63;;;-2.71;87.79
75051;BME280;63628;47.656;11.310;2022-12-18T13:04:54;95931.59;;;-3.00;84.45
75051;BME280;63628;47.656;11.310;2022-12-18T13:07:26;95933.31;;;-2.46;83.30
75051;BME280;63628;47.656;11.310;2022-12-18T13:10:26;95942.03;;;-1.43;88.78